Time;durP1;ratioP1;P1;durP2;ratioP2;P2;SDS_P1;SDS_P2;PMS_P1;PMS_P2;Temp;Humidity;BMP_temperature;BMP_pressure;BME280_temperature;BME280_humidity;BME280_pressure;Samples;Min_cycle;Max_cycle;Signal;HPM_P1;HPM_P2
2022/12/14 00:00:46;;;;;;;24.10;15.40;;;;;;;4.35;46.25;101190.47;5011394;28;20399;-77
2022/12/14 00:03:12;;;;;;;21.70;15.38;;;;;;;4.35;46.49;101189.66;5016673;28;20849;-77
2022/12/14 00:05:38;;;;;;;22.60;15.15;;;;;;;4.27;46.83;101187.63;5011703;28;20805;-77
2022/12/14 00:08:04;;;;;;;19.50;12.90;;;;;;;4.19;47.12;101187.34;5018376;28;20380;-77
2022/12/14 00:10:32;;;;;;;19.08;13.10;;;;;;;4.15;47.15;101186.75;5013935;28;20876;-77
2022/12/14 00:12:57;;;;;;;19.27;12.73;;;;;;;4.12;47.37;101194.00;5020627;28;20453;-76
2022/12/14 00:15:23;;;;;;;17.58;12.75;;;;;;;4.09;47.73;101183.75;5026211;28;20382;-76
2022/12/14 00:17:49;;;;;;;19.52;13.18;;;;;;;3.94;48.13;101175.25;5018427;28;20651;-76
2022/12/14 00:20:14;;;;;;;23.08;13.77;;;;;;;3.86;48.71;101175.84;5036038;28;20370;-76
2022/12/14 00:22:40;;;;;;;16.00;10.68;;;;;;;3.82;48.58;101172.59;5018468;28;20393;-76
2022/12/14 00:25:06;;;;;;;15.03;9.70;;;;;;;3.80;49.14;101179.75;5035751;28;20410;-76
2022/12/14 00:27:31;;;;;;;14.25;9.98;;;;;;;3.84;49.10;101183.00;5036255;28;20392;-77
2022/12/14 00:29:57;;;;;;;15.57;10.00;;;;;;;3.86;49.15;101186.31;5018269;28;20425;-77
2022/12/14 00:32:23;;;;;;;14.23;9.57;;;;;;;3.89;49.02;101186.09;5035670;28;20386;-76
2022/12/14 00:34:48;;;;;;;15.90;9.82;;;;;;;3.89;49.07;101186.09;5035753;28;20382;-77
2022/12/14 00:37:14;;;;;;;14.47;9.50;;;;;;;3.86;49.00;101182.88;5017480;28;20389;-77
2022/12/14 00:39:39;;;;;;;14.03;8.67;;;;;;;3.77;49.46;101184.41;5035276;28;20389;-76
2022/12/14 00:42:06;;;;;;;13.33;8.60;;;;;;;3.67;49.64;101184.22;5035362;28;20394;-77
2022/12/14 00:44:32;;;;;;;12.30;8.88;;;;;;;3.62;49.53;101194.25;5035574;28;20410;-77
2022/12/14 00:46:57;;;;;;;10.77;8.27;;;;;;;3.56;49.90;101187.63;5035128;28;20386;-77
2022/12/14 00:49:23;;;;;;;12.50;8.40;;;;;;;3.41;49.76;101183.53;5014012;28;20407;-77
2022/12/14 00:51:48;;;;;;;12.73;8.97;;;;;;;3.57;49.77;101186.69;5034880;28;20920;-77
2022/12/14 00:54:14;;;;;;;13.85;9.23;;;;;;;3.41;50.03;101184.34;5034810;28;20754;-77
2022/12/14 00:56:39;;;;;;;11.73;8.70;;;;;;;3.49;49.73;101190.81;5035357;28;20401;-77
2022/12/14 00:59:07;;;;;;;12.35;9.05;;;;;;;3.66;49.73;101189.59;5034698;28;20518;-77
2022/12/14 01:01:32;;;;;;;15.03;9.63;;;;;;;3.75;49.65;101187.13;5033146;28;20844;-77
2022/12/14 01:04:16;;;;;;;14.67;9.93;;;;;;;3.75;49.32;101187.13;5034442;28;20409;-77
2022/12/14 01:06:45;;;;;;;13.55;9.70;;;;;;;3.74;49.19;101198.56;5034945;28;20875;-77
2022/12/14 01:09:12;;;;;;;13.65;10.00;;;;;;;3.77;49.29;101195.72;5033960;28;20896;-77
2022/12/14 01:11:38;;;;;;;14.80;10.77;;;;;;;3.81;49.13;101193.69;5034280;28;20464;-77
2022/12/14 01:14:06;;;;;;;16.77;11.65;;;;;;;3.89;49.28;101198.38;5035657;28;20406;-77
2022/12/14 01:16:32;;;;;;;16.07;10.97;;;;;;;3.92;49.08;101201.59;5035904;28;20386;-77
2022/12/14 01:18:59;;;;;;;13.87;9.67;;;;;;;3.80;49.22;101199.91;5035835;28;20472;-78
2022/12/14 01:21:25;;;;;;;13.65;9.55;;;;;;;3.64;49.38;101201.03;5033710;28;20471;-77
2022/12/14 01:23:53;;;;;;;14.80;9.75;;;;;;;3.63;49.60;101185.41;5032374;28;20966;-77
2022/12/14 01:26:20;;;;;;;15.73;10.77;;;;;;;3.73;49.22;101186.41;5032452;28;20430;-77
2022/12/14 01:28:50;;;;;;;15.68;10.73;;;;;;;3.67;49.00;101186.03;5031377;28;20471;-77
2022/12/14 01:31:19;;;;;;;13.48;9.65;;;;;;;3.59;49.28;101174.31;5032133;28;20398;-77
2022/12/14 01:33:45;;;;;;;15.83;10.77;;;;;;;3.66;49.50;101182.56;5031856;28;20427;-77
2022/12/14 01:36:16;;;;;;;12.70;9.35;;;;;;;3.74;49.44;101184.63;5020071;28;20846;-77
2022/12/14 01:38:43;;;;;;;14.77;10.93;;;;;;;3.77;49.30;101192.25;5032113;28;20414;-77
2022/12/14 01:41:38;;;;;;;18.42;12.18;;;;;;;3.73;49.54;101188.22;5015243;28;20732;-78
2022/12/14 01:44:06;;;;;;;18.97;12.10;;;;;;;3.78;50.00;101193.91;5026682;28;20416;-77
2022/12/14 01:46:44;;;;;;;16.27;11.57;;;;;;;3.77;49.95;101192.25;5032284;28;20394;-77
2022/12/14 01:49:13;;;;;;;16.67;11.43;;;;;;;3.83;50.49;101194.41;5032567;28;20390;-77
2022/12/14 01:51:42;;;;;;;16.33;11.90;;;;;;;3.86;50.49;101188.13;5031243;28;20391;-77
2022/12/14 01:54:10;;;;;;;17.35;11.85;;;;;;;3.80;50.46;101181.56;5031595;28;20382;-77
2022/12/14 01:56:39;;;;;;;15.82;11.38;;;;;;;3.77;50.98;101197.50;5031694;28;20425;-77
2022/12/14 01:59:21;;;;;;;16.05;11.65;;;;;;;3.82;51.17;101190.13;5031398;28;20774;-77
2022/12/14 02:01:47;;;;;;;17.52;12.45;;;;;;;3.77;50.98;101190.47;5031746;28;20394;-77
2022/12/14 02:04:15;;;;;;;16.85;11.68;;;;;;;3.81;51.31;101185.84;5025833;28;20482;-77
2022/12/14 02:06:42;;;;;;;17.52;12.73;;;;;;;3.73;51.38;101183.78;5015057;28;20391;-78
2022/12/14 02:09:14;;;;;;;18.00;12.70;;;;;;;3.76;51.19;101190.56;5011049;28;20412;-78
2022/12/14 02:11:48;;;;;;;19.50;13.07;;;;;;;3.69;51.38;101190.22;5029579;28;20463;-77
2022/12/14 02:14:14;;;;;;;18.60;12.50;;;;;;;3.52;51.74;101180.97;5022058;28;20431;-77
2022/12/14 02:16:40;;;;;;;18.00;11.97;;;;;;;3.43;52.03;101190.31;5031336;28;20382;-77
2022/12/14 02:19:06;;;;;;;16.85;11.70;;;;;;;3.43;52.26;101197.34;5031235;28;20839;-77
2022/12/14 02:22:09;;;;;;;16.17;11.80;;;;;;;3.38;52.45;101183.75;5031144;28;20398;-77
2022/12/14 02:24:49;;;;;;;17.48;12.25;;;;;;;3.60;52.20;101183.88;5018956;28;20410;-77
2022/12/14 02:27:23;;;;;;;17.92;12.27;;;;;;;3.45;52.76;101188.41;5030152;28;20389;-77
2022/12/14 02:30:05;;;;;;;15.50;11.85;;;;;;;3.40;52.90;101176.59;5029037;28;20842;-77
2022/12/14 02:32:49;;;;;;;17.05;12.60;;;;;;;3.23;53.53;101172.59;5028228;28;20495;-77
2022/12/14 02:35:45;;;;;;;16.65;12.57;;;;;;;3.19;53.33;101161.50;5028859;28;20421;-77
2022/12/14 02:38:42;;;;;;;18.10;12.75;;;;;;;3.17;54.01;101147.69;5006902;28;20408;-77
2022/12/14 02:41:23;;;;;;;17.35;12.93;;;;;;;3.25;53.77;101147.13;5022836;28;20760;-77
2022/12/14 02:43:49;;;;;;;17.67;12.27;;;;;;;3.30;53.87;101155.50;5029192;28;20398;-76
2022/12/14 02:46:27;;;;;;;16.10;11.88;;;;;;;3.23;53.95;101155.09;5029695;28;20888;-77
2022/12/14 02:49:03;;;;;;;18.23;13.00;;;;;;;3.36;53.45;101143.72;5011628;28;20444;-76
2022/12/14 02:51:40;;;;;;;16.45;11.63;;;;;;;3.33;53.77;101147.41;5028112;28;20394;-77
2022/12/14 02:54:28;;;;;;;17.17;12.13;;;;;;;3.44;53.38;101149.25;5028852;28;20387;-77
2022/12/14 02:57:20;;;;;;;16.38;11.73;;;;;;;3.41;52.71;101150.28;5029082;28;20386;-77
2022/12/14 02:59:50;;;;;;;15.13;10.73;;;;;;;3.35;52.35;101135.03;5026619;28;20521;-77
2022/12/14 03:02:16;;;;;;;15.57;10.45;;;;;;;3.29;52.20;101139.88;5029415;28;20374;-77
2022/12/14 03:04:47;;;;;;;15.97;11.00;;;;;;;3.17;51.53;101155.56;5029130;28;20413;-77
2022/12/14 03:07:35;;;;;;;14.87;10.80;;;;;;;3.41;51.22;101170.44;5012591;28;20473;-77
2022/12/14 03:10:11;;;;;;;15.27;10.33;;;;;;;3.60;50.53;101169.91;5012604;28;20501;-76
2022/12/14 03:12:40;;;;;;;16.33;11.32;;;;;;;3.58;50.37;101179.66;5030589;28;20378;-77
2022/12/14 03:15:08;;;;;;;14.77;11.10;;;;;;;3.48;50.13;101179.50;5030429;28;20886;-77
2022/12/14 03:17:34;;;;;;;14.43;10.35;;;;;;;3.56;50.32;101182.41;5031114;28;20413;-77
2022/12/14 03:20:10;;;;;;;14.55;10.80;;;;;;;3.67;49.88;101184.22;5030703;28;20446;-77
2022/12/14 03:22:43;;;;;;;17.70;11.73;;;;;;;3.57;49.86;101178.00;5030191;28;20418;-77
2022/12/14 03:25:26;;;;;;;16.63;11.50;;;;;;;3.52;49.43;101183.56;5030123;28;20441;-78
2022/12/14 03:28:04;;;;;;;14.40;10.75;;;;;;;3.56;49.63;101182.41;5031242;28;20393;-78
2022/12/14 03:30:34;;;;;;;16.15;10.52;;;;;;;3.70;49.02;101201.53;5030898;28;20410;-78
2022/12/14 03:33:06;;;;;;;16.00;11.25;;;;;;;3.66;49.20;101200.91;5031167;28;20478;-78
2022/12/14 03:35:38;;;;;;;16.83;13.13;;;;;;;3.67;49.07;101181.59;5031309;28;20410;-78
2022/12/14 03:38:16;;;;;;;14.80;11.07;;;;;;;3.62;49.02;101173.28;5031963;28;20395;-78
2022/12/14 03:40:54;;;;;;;15.02;10.65;;;;;;;3.49;49.35;101177.72;5032755;28;20481;-78
2022/12/14 03:43:31;;;;;;;14.70;10.45;;;;;;;3.49;49.19;101173.31;5033981;28;20394;-78
2022/12/14 03:46:03;;;;;;;15.95;11.50;;;;;;;3.51;49.39;101173.19;5016692;28;20422;-78
2022/12/14 03:48:36;;;;;;;16.77;11.10;;;;;;;3.48;49.98;101176.06;5015504;28;20387;-77
2022/12/14 03:51:12;;;;;;;16.80;12.07;;;;;;;3.56;49.78;101182.41;5029375;28;20395;-77
2022/12/14 03:53:46;;;;;;;17.17;11.93;;;;;;;3.62;49.84;101178.50;5028828;28;20466;-77
2022/12/14 03:56:29;;;;;;;16.95;12.20;;;;;;;3.61;49.89;101192.56;5029681;28;20401;-77
2022/12/14 03:59:09;;;;;;;16.02;11.70;;;;;;;3.54;49.62;101192.16;5018474;28;20398;-77
2022/12/14 04:01:53;;;;;;;16.27;12.15;;;;;;;3.64;49.73;101194.97;5029393;28;20415;-77
2022/12/14 04:04:28;;;;;;;17.52;12.63;;;;;;;3.74;49.25;101182.81;5020583;28;20409;-77
2022/12/14 04:07:01;;;;;;;16.17;12.20;;;;;;;3.77;49.57;101184.41;5011465;28;20802;-78
2022/12/14 04:09:36;;;;;;;16.00;11.60;;;;;;;3.66;49.64;101182.56;5029237;28;20393;-77
2022/12/14 04:20:38;;;;;;;22.38;14.48;;;;;;;3.82;50.59;101195.38;5028784;28;20470;-77
2022/12/14 04:26:23;;;;;;;20.63;13.65;;;;;;;4.00;50.33;101193.16;5021163;28;20436;-77
2022/12/14 04:31:55;;;;;;;22.07;14.80;;;;;;;3.96;50.76;101207.44;5029141;28;20513;-77
2022/12/14 04:34:24;;;;;;;20.27;15.32;;;;;;;3.85;50.89;101205.63;5029097;28;20382;-77
2022/12/14 04:37:04;;;;;;;21.02;14.55;;;;;;;3.73;51.19;101196.06;5028872;28;20394;-77
2022/12/14 04:39:41;;;;;;;19.57;14.43;;;;;;;3.61;51.24;101193.38;5024365;28;20417;-78
2022/12/14 04:42:09;;;;;;;17.60;13.23;;;;;;;3.59;51.11;101191.84;5015274;28;20396;-77
2022/12/14 04:44:41;;;;;;;20.58;14.68;;;;;;;3.68;51.16;101191.16;5018913;28;20406;-78
2022/12/14 04:47:10;;;;;;;20.60;14.23;;;;;;;3.67;51.11;101184.22;5024480;28;20485;-78
2022/12/14 04:49:44;;;;;;;18.23;13.60;;;;;;;3.58;51.29;101184.91;5024210;28;20423;-78
2022/12/14 04:52:44;;;;;;;16.75;13.13;;;;;;;3.43;51.46;101179.84;5029224;28;20386;-78
2022/12/14 04:55:31;;;;;;;17.98;13.10;;;;;;;3.53;51.33;101166.06;5007617;28;20408;-78
2022/12/14 04:58:20;;;;;;;18.42;12.40;;;;;;;3.37;51.57;101180.31;5025091;28;20410;-78
2022/12/14 05:01:30;;;;;;;18.50;12.27;;;;;;;3.48;51.26;101202.28;5024277;28;20396;-77
2022/12/14 05:04:19;;;;;;;21.17;13.88;;;;;;;3.66;50.55;101200.09;4995510;28;20748;-77
2022/12/14 05:06:50;;;;;;;18.05;13.50;;;;;;;3.69;50.56;101205.94;5014927;28;20694;-77
2022/12/14 05:09:25;;;;;;;20.63;14.52;;;;;;;3.61;51.01;101198.63;5017340;28;20407;-77
2022/12/14 05:12:03;;;;;;;17.98;13.88;;;;;;;3.73;50.98;101202.13;5021298;28;20393;-77
2022/12/14 05:14:47;;;;;;;20.92;16.60;;;;;;;3.77;51.10;101200.13;5025649;28;20382;-76
2022/12/14 05:17:13;;;;;;;19.42;12.85;;;;;;;3.38;51.26;101204.72;5029546;28;20386;-77
2022/12/14 05:19:49;;;;;;;19.50;13.02;;;;;;;3.27;51.76;101207.28;5027262;28;20426;-77
2022/12/14 05:22:17;;;;;;;20.27;14.13;;;;;;;3.38;51.60;101204.72;5031359;28;20485;-77
2022/12/14 05:24:42;;;;;;;21.38;15.25;;;;;;;3.48;51.38;101204.91;5028691;28;20503;-78
2022/12/14 05:27:08;;;;;;;20.70;13.77;;;;;;;3.50;51.58;101203.81;5031063;28;20485;-76
2022/12/14 05:29:33;;;;;;;21.60;14.93;;;;;;;3.60;51.26;101196.97;5029315;28;20416;-77
2022/12/14 05:32:00;;;;;;;21.40;15.43;;;;;;;3.57;51.57;101201.59;5019690;28;20846;-77
2022/12/14 05:34:25;;;;;;;24.23;16.52;;;;;;;3.54;51.43;101205.25;5024585;28;21787;-78
2022/12/14 05:36:51;;;;;;;23.60;16.50;;;;;;;3.45;51.59;101193.66;5019868;28;20399;-77
2022/12/14 05:39:16;;;;;;;24.97;15.67;;;;;;;3.34;52.18;101204.09;5028408;28;20478;-77
2022/12/14 05:41:42;;;;;;;24.65;16.40;;;;;;;3.23;52.27;101206.66;5031348;28;20421;-77
2022/12/14 05:44:07;;;;;;;25.13;17.00;;;;;;;3.38;51.96;101212.56;5031182;28;20410;-76
2022/12/14 05:46:33;;;;;;;28.70;17.27;;;;;;;3.49;51.82;101212.63;5031271;28;20883;-76
2022/12/14 05:48:59;;;;;;;23.93;14.53;;;;;;;3.48;51.90;101225.88;5013965;28;20929;-77
2022/12/14 05:51:24;;;;;;;21.97;15.30;;;;;;;3.38;52.22;101225.69;5029357;28;20398;-77
2022/12/14 05:53:50;;;;;;;21.93;15.20;;;;;;;3.50;52.21;101234.44;5014370;28;20405;-77
2022/12/14 05:56:16;;;;;;;23.70;15.70;;;;;;;3.45;52.02;101238.22;5029779;28;20429;-78
2022/12/14 05:58:41;;;;;;;22.17;16.20;;;;;;;3.34;52.58;101240.78;5030370;28;20452;-77
2022/12/14 06:01:09;;;;;;;27.77;15.67;;;;;;;3.35;52.53;101242.47;5031229;28;20383;-77
2022/12/14 06:03:35;;;;;;;22.20;16.00;;;;;;;3.30;52.68;101241.97;5021795;28;20420;-78
2022/12/14 06:06:01;;;;;;;23.70;15.70;;;;;;;3.36;52.47;101243.31;5031105;28;20410;-77
2022/12/14 06:08:31;;;;;;;23.00;15.30;;;;;;;3.37;52.51;101235.34;5025184;28;20476;-77
2022/12/14 06:11:07;;;;;;;26.92;16.50;;;;;;;3.40;52.72;101237.75;5030253;28;20824;-77
2022/12/14 06:13:35;;;;;;;23.63;16.27;;;;;;;3.49;52.49;101244.06;5032183;28;20470;-77
2022/12/14 06:16:08;;;;;;;27.42;17.92;;;;;;;3.54;52.64;101238.50;5031893;28;20382;-77
2022/12/14 06:18:33;;;;;;;29.60;20.35;;;;;;;3.60;52.34;101238.06;5031623;28;20477;-77
2022/12/14 06:20:59;;;;;;;26.38;18.70;;;;;;;3.75;51.78;101236.94;5024573;28;20463;-77
2022/12/14 06:23:25;;;;;;;31.23;20.85;;;;;;;3.56;52.24;101244.47;5027371;28;20451;-76
2022/12/14 06:25:54;;;;;;;33.43;21.30;;;;;;;3.51;52.24;101244.81;5013940;28;20399;-77
2022/12/14 06:28:20;;;;;;;33.37;21.87;;;;;;;3.57;52.52;101249.63;5026181;28;20394;-76
2022/12/14 06:30:47;;;;;;;28.48;19.00;;;;;;;3.52;52.37;101241.25;5031633;28;20472;-77
2022/12/14 06:33:12;;;;;;;34.72;21.80;;;;;;;3.63;52.09;101243.91;5021400;28;20430;-77
2022/12/14 06:35:43;;;;;;;35.17;21.20;;;;;;;3.57;52.35;101236.50;5022639;28;20383;-77
2022/12/14 06:38:09;;;;;;;31.65;20.13;;;;;;;3.47;52.79;101230.25;5023734;28;20386;-78
2022/12/14 06:40:34;;;;;;;32.20;21.52;;;;;;;3.63;52.53;101228.19;5031427;28;20379;-77
2022/12/14 06:43:00;;;;;;;33.53;21.02;;;;;;;3.54;52.55;101233.28;5032201;28;20387;-77
2022/12/14 06:45:27;;;;;;;30.33;20.20;;;;;;;3.68;52.26;101243.59;5031206;28;20418;-78
2022/12/14 06:47:53;;;;;;;30.83;20.30;;;;;;;3.79;52.02;101246.25;5032132;28;20392;-78
2022/12/14 06:50:18;;;;;;;33.03;20.53;;;;;;;3.83;52.21;101259.97;5031966;28;20474;-78
2022/12/14 06:52:47;;;;;;;30.83;20.30;;;;;;;3.78;52.21;101251.59;5020771;28;20390;-77
2022/12/14 06:55:12;;;;;;;30.13;21.00;;;;;;;3.78;52.38;101255.09;5030124;28;20461;-78
2022/12/14 06:57:38;;;;;;;29.08;20.10;;;;;;;3.74;52.65;101256.25;5023823;28;20850;-79
2022/12/14 07:00:04;;;;;;;26.50;18.53;;;;;;;3.77;52.35;101263.88;5020150;28;20384;-77
2022/12/14 07:02:29;;;;;;;29.27;20.90;;;;;;;3.86;51.93;101279.91;5022245;28;20403;-77
2022/12/14 07:04:55;;;;;;;29.67;19.43;;;;;;;3.90;52.05;101276.09;5021848;28;20497;-78
2022/12/14 07:07:20;;;;;;;31.10;20.73;;;;;;;4.00;51.47;101284.97;5031718;28;20434;-79
2022/12/14 07:09:46;;;;;;;28.58;19.70;;;;;;;3.96;51.86;101278.25;5019532;28;20421;-78
2022/12/14 07:12:11;;;;;;;31.37;20.27;;;;;;;3.85;52.03;101281.69;5020911;28;20388;-77
2022/12/14 07:14:37;;;;;;;26.95;18.15;;;;;;;3.83;51.46;101279.19;5019090;28;20741;-78
2022/12/14 07:17:02;;;;;;;27.25;17.38;;;;;;;3.72;51.65;101281.75;5024840;28;20447;-80
2022/12/14 07:19:28;;;;;;;21.63;15.83;;;;;;;3.38;52.52;101275.47;5021930;28;20416;-78
2022/12/14 07:21:53;;;;;;;25.67;16.73;;;;;;;3.64;52.00;101271.00;5018129;28;20393;-78
2022/12/14 07:24:19;;;;;;;23.58;15.90;;;;;;;3.69;51.79;101263.63;5020046;28;20414;-78
2022/12/14 07:26:44;;;;;;;27.95;18.40;;;;;;;3.80;51.48;101265.47;5016445;28;20397;-79
2022/12/14 07:29:10;;;;;;;27.73;18.03;;;;;;;3.72;52.10;101262.56;5031645;28;20434;-78
2022/12/14 07:31:36;;;;;;;27.95;19.30;;;;;;;3.73;51.92;101256.38;5032453;28;20386;-78
2022/12/14 07:34:02;;;;;;;24.90;17.30;;;;;;;3.53;52.48;101271.75;5031472;28;20474;-77
2022/12/14 07:36:29;;;;;;;29.30;19.77;;;;;;;3.68;52.53;101268.97;5032616;28;20386;-78
2022/12/14 07:38:55;;;;;;;30.13;20.25;;;;;;;3.73;52.33;101277.34;5015061;28;20393;-77
2022/12/14 07:41:23;;;;;;;25.17;17.13;;;;;;;3.72;52.20;101271.25;5030582;28;20820;-78
2022/12/14 07:43:50;;;;;;;31.60;21.13;;;;;;;3.85;52.21;101260.69;5023646;28;20467;-78
2022/12/14 07:46:19;;;;;;;28.20;19.38;;;;;;;3.83;51.85;101265.22;5028622;28;20383;-79
2022/12/14 07:48:48;;;;;;;26.52;17.17;;;;;;;3.75;52.13;101270.22;5012451;28;20809;-77
2022/12/14 07:51:17;;;;;;;28.88;18.77;;;;;;;3.66;52.10;101270.88;5015382;28;20380;-78
2022/12/14 07:53:43;;;;;;;25.38;17.45;;;;;;;3.81;51.89;101282.84;5013832;28;20404;-77
2022/12/14 07:56:12;;;;;;;28.70;19.20;;;;;;;3.83;52.07;101284.44;5019273;28;20464;-77
2022/12/14 07:58:38;;;;;;;26.13;18.33;;;;;;;3.87;51.75;101278.94;5023794;28;20399;-78
2022/12/14 08:01:18;;;;;;;29.90;19.67;;;;;;;3.81;52.13;101282.84;5027409;28;20420;-78
2022/12/14 08:03:51;;;;;;;29.65;19.20;;;;;;;3.89;51.86;101287.53;5032210;28;20383;-78
2022/12/14 08:06:18;;;;;;;28.48;19.38;;;;;;;3.93;51.74;101289.00;5031816;28;20477;-77
2022/12/14 08:08:44;;;;;;;24.55;16.58;;;;;;;3.87;51.82;101292.06;5031233;28;20386;-78
2022/12/14 08:11:10;;;;;;;27.90;19.42;;;;;;;3.94;51.42;101302.00;5032212;28;20394;-77
2022/12/14 08:13:37;;;;;;;24.05;17.35;;;;;;;3.93;51.30;101292.47;5032292;28;20397;-77
2022/12/14 08:16:05;;;;;;;24.98;16.80;;;;;;;3.91;51.22;101289.13;5022669;28;20933;-77
2022/12/14 08:18:32;;;;;;;26.17;17.88;;;;;;;4.05;50.94;101295.13;5032534;28;20456;-79
2022/12/14 08:20:57;;;;;;;25.27;16.95;;;;;;;3.77;51.34;101299.78;5027481;28;20720;-79
2022/12/14 08:23:23;;;;;;;25.65;17.58;;;;;;;3.93;51.15;101302.94;5018390;28;20384;-78
2022/12/14 08:25:56;;;;;;;30.38;20.08;;;;;;;3.79;51.80;101308.34;5029444;28;20409;-77
2022/12/14 08:28:23;;;;;;;22.77;15.50;;;;;;;3.72;51.29;101297.47;5025510;28;20382;-77
2022/12/14 08:30:48;;;;;;;27.42;17.75;;;;;;;3.95;50.99;101297.59;5025548;28;20433;-77
2022/12/14 08:33:14;;;;;;;43.05;24.67;;;;;;;4.04;51.08;101299.53;5035343;28;20421;-78
2022/12/14 08:35:39;;;;;;;34.20;22.30;;;;;;;4.16;51.25;101293.38;5030306;28;20454;-77
2022/12/14 08:38:05;;;;;;;27.38;17.95;;;;;;;4.15;50.76;101296.13;5018538;28;20410;-78
2022/12/14 08:40:33;;;;;;;26.47;17.70;;;;;;;4.18;50.77;101295.91;5038202;28;20378;-78
2022/12/14 08:42:59;;;;;;;22.30;16.65;;;;;;;4.10;50.47;101291.19;5038785;28;20378;-78
2022/12/14 08:45:24;;;;;;;24.67;16.60;;;;;;;4.14;50.28;101284.81;5035695;28;20424;-78
2022/12/14 08:47:50;;;;;;;23.77;16.00;;;;;;;4.04;50.28;101282.97;5030621;28;20401;-78
2022/12/14 08:50:15;;;;;;;24.90;15.87;;;;;;;4.09;50.55;101291.31;5018764;28;20543;-78
2022/12/14 08:52:41;;;;;;;24.30;17.10;;;;;;;4.02;50.47;101286.53;5029168;28;20389;-78
2022/12/14 08:55:07;;;;;;;23.50;16.83;;;;;;;4.02;50.31;101273.41;5031844;28;20374;-77
2022/12/14 08:57:32;;;;;;;29.63;19.52;;;;;;;4.11;50.41;101271.91;5025935;28;20725;-76
2022/12/14 08:59:57;;;;;;;42.70;23.77;;;;;;;4.04;50.46;101267.22;5017355;28;20437;-78
2022/12/14 09:02:23;;;;;;;24.42;16.42;;;;;;;4.12;50.32;101257.81;5036420;28;20379;-80
2022/12/14 09:04:48;;;;;;;32.77;25.20;;;;;;;4.25;50.19;101252.50;5035228;28;20437;-78
2022/12/14 09:07:14;;;;;;;27.17;19.47;;;;;;;4.33;50.16;101237.00;5017940;28;20393;-79
2022/12/14 09:09:39;;;;;;;26.13;17.88;;;;;;;4.26;49.66;101242.84;5034083;28;20383;-79
2022/12/14 09:12:06;;;;;;;25.92;17.23;;;;;;;4.20;49.55;101236.28;5017707;28;20444;-78
2022/12/14 09:14:32;;;;;;;24.07;16.93;;;;;;;4.18;49.86;101238.19;5017037;28;20456;-78
2022/12/14 09:16:58;;;;;;;29.40;17.75;;;;;;;4.14;50.04;101245.44;5017165;28;20391;-77
2022/12/14 09:19:24;;;;;;;23.77;16.23;;;;;;;4.18;49.30;101241.63;5035337;28;20394;-82
2022/12/14 09:21:50;;;;;;;23.47;16.40;;;;;;;4.10;49.45;101240.53;5035346;28;20406;-78
2022/12/14 09:24:15;;;;;;;23.63;16.20;;;;;;;3.85;49.96;101247.59;5017819;28;20465;-81
2022/12/14 09:26:41;;;;;;;32.20;27.00;;;;;;;4.15;49.80;101239.22;5035071;28;20453;-79
2022/12/14 09:29:06;;;;;;;24.58;17.67;;;;;;;4.21;49.25;101251.03;5035158;28;20518;-79
2022/12/14 09:31:31;;;;;;;24.77;16.57;;;;;;;4.15;49.36;101241.03;5019775;28;20398;-78
2022/12/14 09:33:57;;;;;;;26.90;17.27;;;;;;;4.27;49.48;101236.63;5034674;28;20378;-77
2022/12/14 09:36:27;;;;;;;25.77;18.13;;;;;;;4.31;49.35;101227.59;5036673;28;20389;-78
2022/12/14 09:38:54;;;;;;;24.50;16.38;;;;;;;4.46;48.89;101225.56;5034731;28;20390;-77
2022/12/14 09:41:34;;;;;;;24.27;15.93;;;;;;;4.46;48.79;101221.16;5035192;28;20831;-81
2022/12/14 09:44:13;;;;;;;22.48;15.52;;;;;;;4.49;49.14;101223.53;5034283;28;20780;-80
2022/12/14 09:47:01;;;;;;;26.70;19.07;;;;;;;4.69;48.79;101216.75;5035921;28;21137;-79
2022/12/14 09:49:29;;;;;;;23.65;16.65;;;;;;;4.69;48.79;101226.44;5035604;28;20378;-79
2022/12/14 09:51:59;;;;;;;24.63;17.17;;;;;;;4.57;49.14;101220.31;5035569;28;20389;-78
2022/12/14 09:54:32;;;;;;;22.50;16.30;;;;;;;4.54;48.66;101203.03;5029962;28;20373;-78
2022/12/14 09:57:02;;;;;;;23.67;16.27;;;;;;;4.50;48.49;101208.63;5022853;28;20415;-81
2022/12/14 09:59:30;;;;;;;26.00;17.00;;;;;;;4.59;48.62;101211.38;5018037;28;20391;-79
2022/12/14 10:02:05;;;;;;;25.70;17.73;;;;;;;4.50;48.85;101204.22;5035509;28;21061;-79
2022/12/14 10:04:48;;;;;;;22.30;15.90;;;;;;;4.35;49.00;101200.16;5030688;28;20404;-78
2022/12/14 10:07:25;;;;;;;21.60;15.60;;;;;;;4.49;48.50;101188.59;5026603;28;20398;-78
2022/12/14 10:10:18;;;;;;;26.65;16.98;;;;;;;4.69;48.46;101187.03;5004038;28;20397;-78
2022/12/14 10:12:55;;;;;;;24.05;16.92;;;;;;;4.59;48.41;101182.50;5034776;28;20855;-78
2022/12/14 10:15:40;;;;;;;23.35;15.75;;;;;;;4.72;48.80;101176.31;5037033;28;20486;-80
2022/12/14 10:18:17;;;;;;;23.10;15.57;;;;;;;4.66;48.66;101176.75;5034197;28;20876;-79
2022/12/14 10:21:02;;;;;;;23.33;15.40;;;;;;;4.58;48.89;101188.69;5033766;28;20393;-78
2022/12/14 10:23:27;;;;;;;21.02;14.95;;;;;;;4.67;48.50;101184.53;5033306;28;20418;-79
2022/12/14 10:26:02;;;;;;;19.27;14.18;;;;;;;4.35;48.88;101176.53;5033656;28;20500;-78
2022/12/14 10:28:52;;;;;;;21.70;15.10;;;;;;;4.40;48.68;101172.59;5033199;28;20397;-80
2022/12/14 10:31:51;;;;;;;22.77;15.93;;;;;;;4.27;49.14;101171.88;5034434;28;20473;-79
2022/12/14 10:34:19;;;;;;;23.38;16.75;;;;;;;4.65;48.69;101175.09;5013523;28;20851;-78
2022/12/14 10:37:11;;;;;;;22.70;15.88;;;;;;;4.70;48.18;101170.31;5033108;28;20391;-79
2022/12/14 10:39:42;;;;;;;25.67;16.92;;;;;;;4.66;48.39;101163.63;5010769;28;20890;-78
2022/12/14 10:42:18;;;;;;;22.17;16.35;;;;;;;4.78;48.53;101165.31;5032782;28;20417;-79
2022/12/14 10:45:06;;;;;;;20.08;14.95;;;;;;;4.75;48.11;101166.38;5032926;28;20500;-78
2022/12/14 10:47:38;;;;;;;19.20;13.98;;;;;;;4.57;48.47;101159.94;5033465;28;20456;-81
2022/12/14 10:50:37;;;;;;;21.02;14.20;;;;;;;4.59;48.45;101160.66;5034298;28;20390;-78
2022/12/14 10:53:09;;;;;;;22.58;15.50;;;;;;;4.71;48.07;101161.50;5022223;28;20377;-80
2022/12/14 10:55:41;;;;;;;23.70;16.02;;;;;;;4.76;47.60;101148.84;5033528;28;20465;-77
2022/12/14 10:58:09;;;;;;;26.48;17.60;;;;;;;4.76;47.50;101154.09;5031959;28;20382;-78
2022/12/14 11:00:35;;;;;;;24.88;16.48;;;;;;;4.73;47.75;101156.94;5033340;28;20387;-81
2022/12/14 11:03:01;;;;;;;25.42;17.05;;;;;;;4.83;47.63;101149.19;5035324;28;20802;-79
2022/12/14 11:05:55;;;;;;;25.40;17.63;;;;;;;4.93;48.19;101150.09;5017028;28;20414;-78
2022/12/14 11:08:40;;;;;;;25.05;17.65;;;;;;;4.84;47.34;101148.22;5034010;28;20405;-78
2022/12/14 11:11:08;;;;;;;25.90;17.65;;;;;;;4.80;47.85;101152.88;5033333;28;20421;-78
2022/12/14 11:13:34;;;;;;;24.48;17.08;;;;;;;4.81;47.45;101158.97;5017599;28;20386;-78
2022/12/14 11:16:22;;;;;;;24.35;16.48;;;;;;;4.77;47.79;101142.59;5020032;28;20446;-80
2022/12/14 11:19:00;;;;;;;25.23;16.77;;;;;;;4.60;48.21;101130.81;5034507;28;20383;-78
2022/12/14 11:21:31;;;;;;;23.13;16.35;;;;;;;4.64;48.63;101129.63;5033597;28;20390;-78
2022/12/14 11:23:57;;;;;;;23.45;16.25;;;;;;;4.74;48.01;101132.38;5033535;28;22317;-80
2022/12/14 11:26:31;;;;;;;23.63;16.38;;;;;;;4.78;48.42;101128.53;5034189;28;20481;-78
2022/12/14 11:28:59;;;;;;;24.02;16.45;;;;;;;4.74;48.13;101133.19;5034897;28;20378;-80
2022/12/14 11:31:42;;;;;;;22.73;16.20;;;;;;;4.70;48.54;101130.91;5033354;28;20472;-77
2022/12/14 11:34:26;;;;;;;20.63;15.68;;;;;;;4.72;48.27;101136.91;5034029;28;20389;-79
2022/12/14 11:36:51;;;;;;;22.07;15.53;;;;;;;4.45;48.33;101135.50;5033235;28;20363;-77
2022/12/14 11:39:20;;;;;;;21.67;14.47;;;;;;;4.33;48.76;101121.53;5032907;28;20839;-78
2022/12/14 11:41:49;;;;;;;21.10;15.55;;;;;;;4.54;48.14;101121.63;5033676;28;20390;-80
2022/12/14 11:44:15;;;;;;;22.60;15.53;;;;;;;4.59;48.57;101123.88;5033343;28;20441;-80
2022/12/14 11:46:50;;;;;;;24.50;16.90;;;;;;;4.83;48.37;101131.63;5032908;28;20411;-78
2022/12/14 11:49:39;;;;;;;23.65;16.20;;;;;;;4.70;48.53;101139.66;5033187;28;20386;-79